^^
Grace C. Lehan Memorial Weather Station Historical Data
Daily Summary for March 5, 2021 Units:  English    Metric   Both
Daily Weekly Monthly Yearly
  High: Low: Average:
Temperature: 92.6 °F 62.3 °F 79.5 °F
Dew Point: 71.2 °F 61.1 °F 66.8 °F
Humidity: 97% 45.8% 68%
Wind Speed: 4.5mph 0mph 0.8mph
Wind Gust: 14mph - -
Wind- - WSW
Pressure: 29.88 in 29.78 in -
Precipitation: 0.00 in    
 
 
Tabular Data for March 5, 2021
Time Temperature Dew Point Pressure Wind Wind Speed Wind Gust Humidity Rainfall Rate (Hourly) solar
00:04 67.2 °F 65.1 °F 29.85 in Calm     93% 0.00 in 0 W/m2
00:09 67.1 °F 65 °F 29.85 in Calm     93% 0.00 in 0 W/m2
00:14 67 °F 64.9 °F 29.85 in Calm     93% 0.00 in 0 W/m2
00:19 66.9 °F 64.8 °F 29.86 in Calm     93% 0.00 in 0 W/m2
00:24 66.7 °F 64.7 °F 29.86 in Calm     93% 0.00 in 0 W/m2
00:29 66.6 °F 64.5 °F 29.86 in Calm     93% 0.00 in 0 W/m2
00:34 66.5 °F 64.4 °F 29.86 in Calm     93% 0.00 in 0 W/m2
00:39 66.4 °F 64.3 °F 29.86 in Calm     93% 0.00 in 0 W/m2
00:44 66.3 °F 64.2 °F 29.86 in Calm     93% 0.00 in 0 W/m2
00:49 66.2 °F 64.1 °F 29.86 in Calm     93% 0.00 in 0 W/m2
00:54 66.1 °F 64.3 °F 29.86 in Calm     93.8% 0.00 in 0 W/m2
00:56 66.1 °F 64.3 °F 29.86 in Calm     94% 0.00 in 0 W/m2
01:00 65.9 °F 64.1 °F 29.85 in Calm     94% 0.00 in 0 W/m2
01:30 65.3 °F 63.5 °F 29.86 in Calm     94% 0.00 in 0 W/m2
02:00 64.8 °F 63.3 °F 29.85 in Calm     95% 0.00 in 0 W/m2
02:30 63.8 °F 62 °F 29.85 in Calm     94% 0.00 in 0 W/m2
03:00 63.4 °F 62 °F 29.85 in Calm     95% 0.00 in 0 W/m2
03:30 62.9 °F 61.5 °F 29.85 in Calm     95% 0.00 in 0 W/m2
04:04 62.5 °F 61.1 °F 29.86 in Calm     95% 0.00 in 0 W/m2
04:09 62.5 °F 61.1 °F 29.86 in Calm     95.1% 0.00 in 0 W/m2
04:14 62.4 °F 61.3 °F 29.86 in Calm     96% 0.00 in 0 W/m2
04:19 62.4 °F 61.3 °F 29.85 in Calm     96% 0.00 in 0 W/m2
04:24 62.4 °F 61.3 °F 29.86 in Calm     96% 0.00 in 0 W/m2
04:29 62.4 °F 61.3 °F 29.86 in Calm     96% 0.00 in 0 W/m2
04:34 62.5 °F 61.3 °F 29.86 in Calm     96% 0.00 in 0 W/m2
04:39 62.5 °F 61.3 °F 29.85 in Calm     96% 0.00 in 0 W/m2
04:44 62.5 °F 61.3 °F 29.86 in Calm     96% 0.00 in 0 W/m2
04:49 62.5 °F 61.3 °F 29.86 in Calm     96% 0.00 in 0 W/m2
04:54 62.5 °F 61.3 °F 29.86 in Calm     96% 0.00 in 0 W/m2
04:59 62.5 °F 61.3 °F 29.86 in Calm     96% 0.00 in 0 W/m2
05:04 62.5 °F 61.3 °F 29.86 in Calm     96% 0.00 in 0 W/m2
05:09 62.5 °F 61.3 °F 29.86 in Calm     96% 0.00 in 0 W/m2
05:14 62.5 °F 61.3 °F 29.87 in Calm     96% 0.00 in 0 W/m2
05:19 62.4 °F 61.3 °F 29.87 in Calm     96% 0.00 in 0 W/m2
05:24 62.4 °F 61.3 °F 29.87 in Calm     96% 0.00 in 5 W/m2
05:29 62.4 °F 61.3 °F 29.87 in Calm     96% 0.00 in 5 W/m2
05:34 62.4 °F 61.2 °F 29.87 in Calm     96% 0.00 in 7 W/m2
05:38 62.3 °F 61.2 °F 29.87 in Calm     96% 0.00 in 11 W/m2
06:00 62.3 °F 61.2 °F 29.87 in Calm     96% 0.00 in 16 W/m2
06:30 62.7 °F 61.6 °F 29.87 in Calm     96% 0.00 in 41 W/m2
07:00 63.3 °F 62.4 °F 29.87 in Calm     97% 0.00 in 56 W/m2
07:30 65.3 °F 64.4 °F 29.87 in Calm     97% 0.00 in 125 W/m2
08:04 69.6 °F 68.7 °F 29.87 in Calm     97% 0.00 in 429 W/m2
08:09 70.2 °F 69.3 °F 29.87 in Calm     97% 0.00 in 450 W/m2
08:14 71.1 °F 69.7 °F 29.88 in West 0.1 mph 3 mph 95.3% 0.00 in 469 W/m2
08:19 72.1 °F 69.6 °F 29.88 in Calm   3 mph 91.8% 0.00 in 487 W/m2
08:24 73.2 °F 69.3 °F 29.88 in Calm   3 mph 87.8% 0.00 in 501 W/m2
08:29 74.2 °F 69.5 °F 29.87 in Calm   3 mph 85.1% 0.00 in 515 W/m2
08:34 75.3 °F 70.1 °F 29.87 in Calm   3 mph 83.8% 0.00 in 527 W/m2
08:39 76.4 °F 69.7 °F 29.87 in Calm     79.8% 0.00 in 545 W/m2
08:44 77.2 °F 69.2 °F 29.87 in Calm     76.6% 0.00 in 561 W/m2
08:49 77.7 °F 69.4 °F 29.87 in Calm     75.7% 0.00 in 575 W/m2
08:54 78.3 °F 69.3 °F 29.87 in Calm     74% 0.00 in 585 W/m2
08:59 78.6 °F 69.6 °F 29.86 in Calm     73.9% 0.00 in 596 W/m2
09:04 79 °F 69.4 °F 29.86 in Calm   1 mph 72.4% 0.00 in 612 W/m2
09:09 79.3 °F 69.5 °F 29.86 in Calm   1 mph 72% 0.00 in 624 W/m2
09:14 79.8 °F 69.9 °F 29.86 in Calm   1 mph 71.8% 0.00 in 640 W/m2
09:19 80.3 °F 69.8 °F 29.86 in West 0.1 mph 2 mph 70.4% 0.00 in 654 W/m2
09:24 80.7 °F 70 °F 29.86 in Calm   2 mph 70.1% 0.00 in 668 W/m2
09:29 81 °F 69.7 °F 29.86 in Calm   2 mph 68.6% 0.00 in 680 W/m2
09:34 81.4 °F 70 °F 29.86 in Calm   2 mph 68.5% 0.00 in 691 W/m2
09:39 81.6 °F 70.3 °F 29.86 in Calm     68.5% 0.00 in 705 W/m2
09:44 82.2 °F 70.8 °F 29.86 in Calm     68.4% 0.00 in 721 W/m2
09:49 83 °F 71.2 °F 29.85 in Calm     67.6% 0.00 in 735 W/m2
09:54 83.7 °F 70.6 °F 29.85 in WSW 0.1 mph 2 mph 64.7% 0.00 in 749 W/m2
09:59 84.2 °F 70.6 °F 29.85 in WSW 0.2 mph 2 mph 63.8% 0.00 in 759 W/m2
10:04 84.6 °F 69.9 °F 29.85 in WSW 0.6 mph 5 mph 61.5% 0.00 in 775 W/m2
10:09 85 °F 70.7 °F 29.85 in WSW 1.2 mph 10 mph 62.2% 0.00 in 786 W/m2
10:14 85.6 °F 70.6 °F 29.84 in West 0.1 mph 10 mph 61% 0.00 in 798 W/m2
10:19 86 °F 69.5 °F 29.84 in SW 2.8 mph 10 mph 57.9% 0.00 in 803 W/m2
10:24 86.2 °F 68.9 °F 29.84 in SW 1.2 mph 10 mph 56.4% 0.00 in 821 W/m2
10:29 86.6 °F 69.6 °F 29.84 in WSW 1.7 mph 10 mph 57.1% 0.00 in 830 W/m2
10:34 86.9 °F 69.5 °F 29.84 in WSW 1.5 mph 10 mph 56.3% 0.00 in 840 W/m2
10:39 87.2 °F 69.7 °F 29.84 in WSW 0.9 mph 10 mph 56.1% 0.00 in 849 W/m2
10:44 87.4 °F 68.9 °F 29.84 in SW 1.7 mph 10 mph 54.4% 0.00 in 856 W/m2
10:49 87.5 °F 69.7 °F 29.84 in SW 1.3 mph 10 mph 55.6% 0.00 in 872 W/m2
10:54 87.8 °F 70.1 °F 29.84 in WSW 0.8 mph 10 mph 55.8% 0.00 in 875 W/m2
10:59 88.1 °F 69.5 °F 29.84 in WSW 1 mph 10 mph 54.3% 0.00 in 877 W/m2
11:04 88.2 °F 70.1 °F 29.84 in WSW 1 mph 10 mph 55.1% 0.00 in 882 W/m2
11:09 88.5 °F 69.7 °F 29.84 in WSW 0.5 mph 5 mph 54% 0.00 in 900 W/m2
11:14 88.7 °F 70.1 °F 29.84 in WSW 0.9 mph 5 mph 54.3% 0.00 in 900 W/m2
11:19 88.8 °F 69.4 °F 29.84 in WSW 2.1 mph 6 mph 52.9% 0.00 in 909 W/m2
11:24 89.1 °F 70.2 °F 29.84 in WSW 1 mph 6 mph 53.9% 0.00 in 914 W/m2
11:29 89.6 °F 70.7 °F 29.84 in WSW 1.8 mph 6 mph 53.9% 0.00 in 916 W/m2
11:34 90 °F 70.7 °F 29.83 in West 1 mph 6 mph 53.3% 0.00 in 925 W/m2
11:39 90.2 °F 70.9 °F 29.84 in WSW 1.5 mph 6 mph 53.2% 0.00 in 926 W/m2
11:44 90.3 °F 70.1 °F 29.83 in SW 1.6 mph 6 mph 51.7% 0.00 in 930 W/m2
11:49 90 °F 69 °F 29.83 in SW 1.7 mph 6 mph 50.3% 0.00 in 932 W/m2
11:53 89.6 °F 69.7 °F 29.83 in SW 1.4 mph 6 mph 52% 0.00 in 937 W/m2
11:59 89.7 °F 69.7 °F 29.82 in SW 1.2 mph 10 mph 51.9% 0.00 in 940 W/m2
12:04 89.3 °F 69.9 °F 29.82 in SSW 2 mph 2 mph 53% 0.00 in 942 W/m2
12:09 89.3 °F 69.7 °F 29.82 in SSW 1.9 mph 5 mph 52.5% 0.00 in 947 W/m2
12:14 89.3 °F 69.5 °F 29.82 in SW 1.7 mph 6 mph 52.1% 0.00 in 947 W/m2
12:19 89.2 °F 69.9 °F 29.82 in WSW 2.2 mph 11 mph 53.2% 0.00 in 953 W/m2
12:24 89.2 °F 69.7 °F 29.82 in SW 2.3 mph 11 mph 52.7% 0.00 in 954 W/m2
12:29 89.3 °F 70.3 °F 29.82 in SW 1.7 mph 11 mph 53.6% 0.00 in 962 W/m2
12:34 89.6 °F 70.5 °F 29.82 in SW 2.6 mph 11 mph 53.5% 0.00 in 963 W/m2
12:39 89.9 °F 70.4 °F 29.82 in SW 2.6 mph 10 mph 52.8% 0.00 in 965 W/m2
12:44 90 °F 69.1 °F 29.82 in SW 2.9 mph 10 mph 50.4% 0.00 in 970 W/m2
12:49 89.9 °F 69.2 °F 29.82 in SW 2.4 mph 10 mph 50.8% 0.00 in 965 W/m2
12:54 89.7 °F 69.3 °F 29.82 in WSW 2 mph 10 mph 51.1% 0.00 in 963 W/m2
12:59 89.9 °F 69.8 °F 29.81 in WSW 2 mph 10 mph 51.6% 0.00 in 970 W/m2
13:04 90 °F 69.6 °F 29.81 in SW 1.9 mph 10 mph 51.2% 0.00 in 970 W/m2
13:09 90.1 °F 69.6 °F 29.81 in West 2.3 mph 9 mph 51.1% 0.00 in 967 W/m2
13:14 90.3 °F 69.3 °F 29.81 in SW 1 mph 9 mph 50.1% 0.00 in 969 W/m2
13:19 90.3 °F 68.9 °F 29.81 in SW 2.7 mph 9 mph 49.6% 0.00 in 967 W/m2
13:24 90.4 °F 68.9 °F 29.80 in SW 2.4 mph 9 mph 49.4% 0.00 in 960 W/m2
13:29 90.5 °F 68.7 °F 29.80 in SW 2.4 mph 9 mph 48.9% 0.00 in 949 W/m2
13:34 90.6 °F 69.2 °F 29.80 in SW 2.2 mph 9 mph 49.5% 0.00 in 939 W/m2
13:39 90.8 °F 69.1 °F 29.80 in SW 2.6 mph 7 mph 49.1% 0.00 in 965 W/m2
13:44 91 °F 69 °F 29.80 in SW 2.3 mph 10 mph 48.7% 0.00 in 947 W/m2
13:48 91 °F 69.5 °F 29.80 in WSW 4.5 mph 14 mph 49.4% 0.00 in 870 W/m2
14:00 90.5 °F 69.3 °F 29.79 in SW 3 mph 14 mph 50% 0.00 in 891 W/m2
14:30 90.8 °F 69.6 °F 29.79 in SW 2 mph 9 mph 50% 0.00 in 894 W/m2
15:00 91.2 °F 70 °F 29.79 in SW 2 mph 10 mph 50% 0.00 in 858 W/m2
15:30 92.6 °F 69.4 °F 29.78 in SW 2 mph 12 mph 47% 0.00 in 804 W/m2
16:04 92.6 °F 70.3 °F 29.78 in West 2.7 mph 5 mph 48.5% 0.00 in 573 W/m2
16:09 92.6 °F 69.4 °F 29.78 in West 2.2 mph 8 mph 47% 0.00 in 552 W/m2
16:14 92.4 °F 68.9 °F 29.78 in West 2.8 mph 10 mph 46.5% 0.00 in 411 W/m2
16:16 92.2 °F 68.3 °F 29.78 in West 1.9 mph 10 mph 45.8% 0.00 in 162 W/m2
16:30 91.3 °F 68.3 °F 29.78 in West 2 mph 10 mph 47% 0.00 in 284 W/m2
17:00 90.9 °F 67.3 °F 29.78 in SW 2 mph 10 mph 46% 0.00 in 118 W/m2
17:30 90.6 °F 68.2 °F 29.78 in SW 2 mph 7 mph 48% 0.00 in 84 W/m2
18:00 89.6 °F 67.9 °F 29.78 in SW 2 mph 9 mph 49% 0.00 in 70 W/m2
18:30 89.7 °F 67.4 °F 29.79 in SW 1 mph 8 mph 48% 0.00 in 82 W/m2
19:00 89 °F 67.4 °F 29.80 in WSW 1 mph 7 mph 49% 0.00 in 52 W/m2
19:30 88 °F 67.1 °F 29.81 in WSW 1 mph 7 mph 50% 0.00 in 41 W/m2
20:04 86.2 °F 66.5 °F 29.82 in SW 1.4 mph 4 mph 52% 0.00 in 9 W/m2
20:09 86 °F 66.4 °F 29.82 in SW 0.9 mph 5 mph 52% 0.00 in 9 W/m2
20:14 85.7 °F 66.1 °F 29.82 in Calm   5 mph 52% 0.00 in 5 W/m2
20:19 85.4 °F 66 °F 29.83 in SW 0.1 mph 5 mph 52.3% 0.00 in 0 W/m2
20:24 85.2 °F 66.1 °F 29.83 in Calm   5 mph 53% 0.00 in 0 W/m2
20:29 84.9 °F 65.9 °F 29.83 in Calm   5 mph 53% 0.00 in 0 W/m2
20:34 84.7 °F 65.7 °F 29.83 in Calm   5 mph 53.2% 0.00 in 0 W/m2
20:39 84.4 °F 65.8 °F 29.84 in Calm     53.8% 0.00 in 0 W/m2
20:44 84.1 °F 65.7 °F 29.84 in Calm     54% 0.00 in 0 W/m2
20:49 83.8 °F 65.5 °F 29.84 in Calm     54.1% 0.00 in 0 W/m2
20:54 83.6 °F 65.7 °F 29.84 in Calm     55% 0.00 in 0 W/m2
20:59 83.3 °F 65.4 °F 29.84 in SW 0.2 mph 4 mph 55% 0.00 in 0 W/m2
21:04 83 °F 65.6 °F 29.85 in SW 0.1 mph 4 mph 55.8% 0.00 in 0 W/m2
21:09 82.7 °F 65.6 °F 29.85 in SW 1.1 mph 6 mph 56.3% 0.00 in 0 W/m2
21:14 82.5 °F 65.7 °F 29.85 in Calm   6 mph 57% 0.00 in 0 W/m2
21:19 82.2 °F 65.6 °F 29.86 in SW 0.7 mph 6 mph 57.3% 0.00 in 0 W/m2
21:24 81.9 °F 65.7 °F 29.86 in SW 1.1 mph 6 mph 58% 0.00 in 0 W/m2
21:29 81.7 °F 65.5 °F 29.86 in SW 0.7 mph 6 mph 58% 0.00 in 0 W/m2
21:34 81.5 °F 65.3 °F 29.86 in SW 0.4 mph 6 mph 58% 0.00 in 0 W/m2
21:39 81.3 °F 65.1 °F 29.86 in SW 0.5 mph 4 mph 58% 0.00 in 0 W/m2
21:44 81.1 °F 65 °F 29.86 in SW 0.5 mph 4 mph 58% 0.00 in 0 W/m2
21:49 81 °F 64.8 °F 29.86 in Calm   4 mph 58% 0.00 in 0 W/m2
21:54 80.9 °F 64.8 °F 29.87 in Calm   4 mph 58.3% 0.00 in 0 W/m2
21:59 80.7 °F 65.1 °F 29.87 in Calm   4 mph 59% 0.00 in 0 W/m2
22:04 80.5 °F 64.9 °F 29.87 in Calm   4 mph 59% 0.00 in 0 W/m2
22:09 80.4 °F 64.7 °F 29.87 in Calm     59% 0.00 in 0 W/m2
22:14 80.2 °F 64.6 °F 29.88 in Calm     59% 0.00 in 0 W/m2
22:18 80.1 °F 64.9 °F 29.88 in Calm     60% 0.00 in 0 W/m2
22:30 79.6 °F 64.5 °F 29.87 in Calm     60% 0.00 in 0 W/m2
23:00 78.4 °F 64.3 °F 29.88 in Calm   2 mph 62% 0.00 in 0 W/m2
23:30 77.3 °F 63.7 °F 29.87 in Calm     63% 0.00 in 0 W/m2
Hartford County Weather
Compliments of Weather Underground - 2 mb